Hayward, WI

4:48 PM CDT on April 29, 2017 (GMT -0500)
Sawyer County | | Change Station

Elev 1214 ft 46.03 °N, 91.44 °W | Updated 55 minutes ago

Clear
Clear
50 °F
Feels Like 50 °F
N
13
Wind Variable Wind from North

Today
High -- | Low -- °F
--% Chance of Precip.
Yesterday
High -- | Low -- °F
Precip. -- in
Pressure 30.37 in
Visibility 10.0 miles
Clouds Clear
Dew Point 21 °F
Humidity 32%
Rainfall 0.00 in
Snow Depth Not available.
5:55 AM 8:11 PM
Waxing Crescent, 16% visible
METAR KHYR 292053Z AUTO 01011KT 10SM CLR 10/M06 A3033 RMK AO2 SLP283 T01001061 51009
Pressure 30.37 in
Visibility 10.0 miles
Clouds Clear
Dew Point 21 °F
Humidity 32%
Rainfall 0.00 in
Snow Depth Not available.
5:55 AM 8:11 PM
Waxing Crescent, 16% visible
METAR KHYR 292053Z AUTO 01011KT 10SM CLR 10/M06 A3033 RMK AO2 SLP283 T01001061 51009

Get Severe Weather Alerts

Thanks for signing up!

Be on the lookout for a verification email in your inbox.

You'll start receiving the daily forecast at 8 AM.

×

10-Day Weather Forecast

Almanac

Astronomy

Apr. 29, 2017 Rise Set
Actual Time
Civil Twilight
Nautical Twilight
Astronomical Twilight
Moon
Length of Visible Light
Length of Day
Tomorrow will be .
, % of the Moon is Illuminated

Today's Extremes

State Highs State Lows

Community

WunderPhotos

WunderBlog® & News

Nearby

Air Quality

  Air Quality AQ Index Pollutant
Not available.

Snow Depth

Station Depth Elevation

Earthquake Activity

City Distance Mag. Time & Date
Minimum magnitude displayed is 2.5.

Coastal Water Temperatures

Place Temperature

Stations

Nearby Weather Stations

Station Location Temp. Windchill Dew Point Humidity Wind Precip. Elev Updated Type
                   

Watches & Warnings

There are currently no watches in effect.